This is the latest recevied weather packets stored in our database for station/object CRYC. If no packets are shown the sender has not sent any weather packets the latest 10 day(s).
| Time | Temp. | Humidity | Pressure | Rain* | Wind** | Luminosity | Snow |
|---|---|---|---|---|---|---|---|
| 1777580019 | 25° C | - | - | 0 mm | 1.79 m/s, 281° | - | - |
| 1777579415 | 24.44° C | - | - | 0 mm | 1.34 m/s, 276° | - | - |
| 1777578817 | 25° C | - | - | 0 mm | 1.79 m/s, 293° | - | - |
| 1777578207 | 24.44° C | - | - | 0 mm | 2.68 m/s, 253° | - | - |
| 1777577602 | 23.89° C | - | - | 0 mm | 2.24 m/s, 42° | - | - |
| 1777576999 | 22.78° C | - | - | 0 mm | 1.79 m/s, 295° | - | - |
| 1777576392 | 22.78° C | - | - | 0 mm | 1.79 m/s, 301° | - | - |
| 1777575185 | 22.78° C | - | - | 0 mm | 2.68 m/s, 318° | - | - |
| 1777574578 | 23.33° C | - | - | 0 mm | 3.13 m/s, 332° | - | - |
| 1777573971 | 23.33° C | - | - | 0 mm | 0.89 m/s, 359° | - | - |
| 1777573367 | 22.22° C | - | - | 0 mm | 1.79 m/s, 315° | - | - |
| 1777572764 | 21.67° C | - | - | 0 mm | 2.24 m/s, 290° | - | - |
| 1777571551 | 23.89° C | - | - | 0 mm | 2.68 m/s, 285° | - | - |
| 1777570948 | 22.78° C | - | - | 0 mm | 1.34 m/s, 319° | - | - |
| 1777570347 | 22.22° C | - | - | 0 mm | 1.79 m/s, 318° | - | - |
| 1777569739 | 21.11° C | - | - | 0 mm | 3.13 m/s, 11° | - | - |
| 1777568532 | 21.11° C | - | - | 0 mm | 1.79 m/s, 293° | - | - |
| 1777567930 | 21.11° C | - | - | 0 mm | 2.68 m/s, 285° | - | - |
| 1777567327 | 21.11° C | - | - | 0 mm | 2.68 m/s, 172° | - | - |
| 1777566721 | 21.11° C | - | - | 0 mm | 0.89 m/s, 343° | - | - |
| 1777566112 | 21.11° C | - | - | 0 mm | 1.79 m/s, 278° | - | - |
| 1777565510 | 20.56° C | - | - | 0 mm | 0.89 m/s, 359° | - | - |
| 1777564905 | 20° C | - | - | 0 mm | 1.34 m/s, 359° | - | - |
| 1777564298 | 19.44° C | - | - | 0 mm | 2.24 m/s, 359° | - | - |
| 1777563693 | 17.78° C | - | - | 0 mm | 1.79 m/s, 335° | - | - |
* Rain latest hour (hover to see other rain measurements)
** Current wind speed in m/s (hover to see current wind gust speed)